Aérodrome :
LOGIN :

S'inscrire | Disclaimer

   EN    FR    IT 

 










Légende :    VFR   VFR Marginal   IFR   IFR Intensif   IFR Très Intensif
Visi : 
Plafond : 
>= 8 km
>= 3000ft
5 à 8 km
1000 à 3000 ft
1500m à 5 km
500 à 1000 ft
800 à 1500m
200 à 500 ft
< 800m
< 200 ft
Symboles :   Orages  Brouillard  Fortes neiges  Fortes précipitations  Vent > 20 kt
SIGMETs :   Divers  Orages  Givrage  Turbulence  Onde Orograph.  Cendres Volcan.







- Altitude de l'aérodrome : 1367 ft
- Code IATA : FDH


EDNY - Friedrichshafen

DERNIER METAR :
  • 172050Z 01004KT 5000 BR OVC009 04/03 Q1024

METARs EXPIRÉS :
  • 172020Z 03007KT 5000 BR OVC007 04/03 Q1024
  • 171950Z 02005KT 5000 BR OVC007 04/03 Q1024
  • 171850Z 01005KT 5000 BR OVC007 04/03 Q1024
  • 171820Z 36004KT 6000 OVC011 04/03 Q1025

TAF AMD TAF EDNY
Valide du 17 à 19h jusqu'au 18 à 18h UTC


171919Z 1719/1818 06003KT 6000 BKN012
TEMPO 1719/1809 2500 BR BKN007
BECMG 1809/1812 24006KT BKN020
Pas de NOTAMs connus pour ce terrain.



MET'MAP, la Météo Aéronautique d'un coup d'oeil ! - Copyright ORBIFLY Décembre 2007 - Disclaimer

ORBIFLY MET'MAP TEAM :

Programmation & Développement : Alexandra Zaïnal
Conception & Développement : Baudouin d'Aumeries
Co-Programmation & Développement : Marc-Olivier Méhu
Soutien technique & logistique : Manuel Goepfert

Contact : metmap@orbifly.com




SOURCES & CREDITS :

   NOAA